createdAt,value
2022-12-17T00:02:18.135Z,13.59
2022-12-17T00:05:03.408Z,13.60
2022-12-17T00:07:48.699Z,13.60
2022-12-17T00:10:33.999Z,13.59
2022-12-17T00:13:19.214Z,13.59
2022-12-17T00:16:10.040Z,13.60
2022-12-17T00:18:55.290Z,13.59
2022-12-17T00:21:41.483Z,13.58
2022-12-17T00:24:26.840Z,13.61
2022-12-17T00:27:12.270Z,13.58
2022-12-17T00:29:57.107Z,13.57
2022-12-17T00:32:42.468Z,13.59
2022-12-17T00:35:27.784Z,13.59
2022-12-17T00:38:13.192Z,13.59
2022-12-17T00:40:58.642Z,13.59
2022-12-17T00:43:43.817Z,13.58
2022-12-17T00:46:29.187Z,13.58
2022-12-17T00:49:14.219Z,13.59
2022-12-17T00:51:59.681Z,13.58
2022-12-17T00:54:44.463Z,13.59
2022-12-17T00:57:29.391Z,13.59
2022-12-17T01:00:14.846Z,13.59
2022-12-17T01:03:00.224Z,13.58
2022-12-17T01:05:45.511Z,13.58
2022-12-17T01:08:32.781Z,13.58
2022-12-17T01:11:22.651Z,13.59
2022-12-17T01:14:08.061Z,13.58
2022-12-17T01:16:53.385Z,13.59
2022-12-17T01:19:41.263Z,13.59
2022-12-17T01:22:26.648Z,13.59
2022-12-17T01:25:11.932Z,13.61
2022-12-17T01:27:56.850Z,13.61
2022-12-17T01:30:42.133Z,13.61
2022-12-17T01:33:28.406Z,13.61
2022-12-17T01:36:14.802Z,13.61
2022-12-17T01:39:00.154Z,13.62
2022-12-17T01:41:45.547Z,13.62
2022-12-17T01:45:10.959Z,13.61
2022-12-17T01:47:58.878Z,13.61
2022-12-17T01:50:47.646Z,13.62
2022-12-17T01:53:34.350Z,13.60
2022-12-17T01:56:19.773Z,13.60
2022-12-17T01:59:05.592Z,13.60
2022-12-17T02:01:51.117Z,13.61
2022-12-17T02:04:36.551Z,13.60
2022-12-17T02:07:36.000Z,13.60
2022-12-17T02:10:34.846Z,13.60
2022-12-17T02:13:35.117Z,13.59
2022-12-17T02:16:28.873Z,13.61
2022-12-17T02:19:42.767Z,13.60
2022-12-17T02:23:02.883Z,13.59
2022-12-17T02:26:01.161Z,13.60
2022-12-17T02:28:46.722Z,13.61
2022-12-17T02:31:32.043Z,13.60
2022-12-17T02:34:17.232Z,13.60
2022-12-17T02:37:02.456Z,13.59
2022-12-17T02:39:47.870Z,13.60
2022-12-17T02:42:33.110Z,13.60
2022-12-17T02:45:18.485Z,13.60
2022-12-17T02:48:03.848Z,13.61
2022-12-17T02:50:49.124Z,13.60
2022-12-17T02:53:34.768Z,13.60
2022-12-17T02:56:20.108Z,13.59
2022-12-17T02:59:05.410Z,13.60
2022-12-17T03:01:50.752Z,13.60
2022-12-17T03:04:35.891Z,13.61
2022-12-17T03:07:21.270Z,13.61
2022-12-17T03:10:06.552Z,13.60
2022-12-17T03:12:51.928Z,13.59
2022-12-17T03:15:47.865Z,13.59
2022-12-17T03:18:33.182Z,13.60
2022-12-17T03:21:17.974Z,13.62
2022-12-17T03:24:03.296Z,13.61
2022-12-17T03:26:48.137Z,13.63
2022-12-17T03:29:33.255Z,13.63
2022-12-17T03:32:18.498Z,13.63
2022-12-17T03:35:03.899Z,13.62
2022-12-17T03:37:49.347Z,13.64
2022-12-17T03:40:34.618Z,13.63
2022-12-17T03:43:26.441Z,13.64
2022-12-17T03:46:12.710Z,13.64
2022-12-17T03:48:58.323Z,13.62
2022-12-17T03:51:43.721Z,13.63
2022-12-17T03:54:29.149Z,13.63
2022-12-17T03:57:16.272Z,13.63
2022-12-17T04:00:01.857Z,13.64
2022-12-17T04:03:07.077Z,13.63
2022-12-17T04:05:52.215Z,13.62
2022-12-17T04:08:37.397Z,13.63
2022-12-17T04:11:22.274Z,13.63
2022-12-17T04:14:07.630Z,13.63
2022-12-17T04:16:52.967Z,13.63
2022-12-17T04:19:38.181Z,13.62
2022-12-17T04:22:24.160Z,13.64
2022-12-17T04:25:10.479Z,13.61
2022-12-17T04:27:55.353Z,13.62
2022-12-17T04:30:40.786Z,13.62
2022-12-17T04:33:25.909Z,13.63
2022-12-17T04:36:11.264Z,13.64
2022-12-17T04:38:56.085Z,13.63
2022-12-17T04:41:41.016Z,13.63
2022-12-17T04:44:26.358Z,13.63
2022-12-17T04:47:11.680Z,13.64
2022-12-17T04:49:57.049Z,13.62
2022-12-17T04:52:42.381Z,13.64
2022-12-17T04:55:27.762Z,13.64
2022-12-17T04:58:13.088Z,13.63
2022-12-17T05:00:57.974Z,13.64
2022-12-17T05:03:43.423Z,13.63
2022-12-17T05:06:28.564Z,13.62
2022-12-17T05:09:13.667Z,13.64
2022-12-17T05:11:58.500Z,13.63
2022-12-17T05:14:43.944Z,13.63
2022-12-17T05:17:29.149Z,13.64
2022-12-17T05:20:14.509Z,13.64
2022-12-17T05:22:59.322Z,13.64
2022-12-17T05:25:44.654Z,13.64
2022-12-17T05:28:29.531Z,13.65
2022-12-17T05:31:14.899Z,13.65
2022-12-17T05:34:00.087Z,13.64
2022-12-17T05:36:45.420Z,13.66
2022-12-17T05:39:30.874Z,13.65
2022-12-17T05:42:15.992Z,13.66
2022-12-17T05:45:01.234Z,13.65
2022-12-17T05:47:46.615Z,13.65
2022-12-17T05:50:31.822Z,13.64
2022-12-17T05:53:23.668Z,13.65
2022-12-17T05:56:10.093Z,13.65
2022-12-17T05:58:55.502Z,13.65
2022-12-17T06:01:40.420Z,13.63
2022-12-17T06:04:25.860Z,13.65
2022-12-17T06:07:11.046Z,13.65
2022-12-17T06:09:56.466Z,13.65
2022-12-17T06:12:41.856Z,13.65
2022-12-17T06:15:27.189Z,13.65
2022-12-17T06:18:17.159Z,13.63
2022-12-17T06:21:02.351Z,13.64
2022-12-17T06:23:47.693Z,13.64
2022-12-17T06:26:49.718Z,13.65
2022-12-17T06:29:34.973Z,13.63
2022-12-17T06:32:19.781Z,13.63
2022-12-17T06:35:04.555Z,13.65
2022-12-17T06:37:49.806Z,13.64
2022-12-17T06:40:35.113Z,13.65
2022-12-17T06:43:20.494Z,13.64
2022-12-17T06:46:05.507Z,13.65
2022-12-17T06:48:50.697Z,13.63
2022-12-17T06:51:35.543Z,13.64
2022-12-17T06:54:20.228Z,13.63
2022-12-17T06:57:05.637Z,13.64
2022-12-17T06:59:51.086Z,13.64
2022-12-17T07:02:36.678Z,13.64
2022-12-17T07:05:21.959Z,13.65
2022-12-17T07:08:07.301Z,13.65
2022-12-17T07:10:52.647Z,13.66
2022-12-17T07:13:37.702Z,13.65
2022-12-17T07:16:23.390Z,13.65
2022-12-17T07:19:08.586Z,13.66
2022-12-17T07:21:54.046Z,13.66
2022-12-17T07:24:38.867Z,13.66
2022-12-17T07:27:23.621Z,13.66
2022-12-17T07:30:09.080Z,13.65
2022-12-17T07:32:54.339Z,13.67
2022-12-17T07:35:39.677Z,13.64
2022-12-17T07:38:25.599Z,13.64
2022-12-17T07:41:10.396Z,13.66
2022-12-17T07:43:55.927Z,13.66
2022-12-17T07:46:41.326Z,13.66
2022-12-17T07:49:26.750Z,13.68
2022-12-17T07:52:12.186Z,13.68
2022-12-17T07:54:57.693Z,13.66
2022-12-17T07:57:43.172Z,13.67
2022-12-17T08:00:29.052Z,13.66
2022-12-17T08:03:18.584Z,13.67
2022-12-17T08:06:03.741Z,13.67
2022-12-17T08:08:49.041Z,13.67
2022-12-17T08:11:34.369Z,13.68
2022-12-17T08:14:19.573Z,13.68
2022-12-17T08:17:04.994Z,13.68
2022-12-17T08:19:50.374Z,13.67
2022-12-17T08:22:35.123Z,13.68
2022-12-17T08:25:20.522Z,13.68
2022-12-17T08:28:11.166Z,13.68
2022-12-17T08:31:07.235Z,13.67
2022-12-17T08:33:52.899Z,13.68
2022-12-17T08:36:38.211Z,13.67
2022-12-17T08:39:23.731Z,13.68
2022-12-17T08:42:09.002Z,13.69
2022-12-17T08:44:54.419Z,13.69
2022-12-17T08:47:39.860Z,13.69
2022-12-17T08:50:26.207Z,13.69
2022-12-17T08:53:18.291Z,13.69
2022-12-17T08:56:03.565Z,13.69
2022-12-17T08:58:48.337Z,13.68
2022-12-17T09:01:33.812Z,13.70
2022-12-17T09:04:18.949Z,13.69
2022-12-17T09:07:04.223Z,13.69
2022-12-17T09:09:49.594Z,13.69
2022-12-17T09:12:35.025Z,13.69
2022-12-17T09:15:20.310Z,13.69
2022-12-17T09:18:05.621Z,13.69
2022-12-17T09:20:50.435Z,13.70
2022-12-17T09:23:36.441Z,13.69
2022-12-17T09:26:22.113Z,13.69
2022-12-17T09:29:07.274Z,13.70
2022-12-17T09:31:53.001Z,13.70
2022-12-17T09:34:38.460Z,13.70
2022-12-17T09:37:23.693Z,13.71
2022-12-17T09:40:09.034Z,13.72
2022-12-17T09:43:10.328Z,13.73
2022-12-17T09:46:03.601Z,13.72
2022-12-17T09:49:03.315Z,13.72
2022-12-17T09:51:48.723Z,13.73
2022-12-17T09:55:01.493Z,13.73
2022-12-17T09:57:49.681Z,13.74
2022-12-17T10:00:40.197Z,13.72
2022-12-17T10:03:34.617Z,13.73
2022-12-17T10:06:31.110Z,13.73
2022-12-17T10:09:24.411Z,13.73
2022-12-17T10:12:09.462Z,13.73
2022-12-17T10:14:54.706Z,13.72
2022-12-17T10:17:43.206Z,13.73
2022-12-17T10:20:42.987Z,13.73
2022-12-17T10:23:28.380Z,13.73
2022-12-17T10:26:15.317Z,13.73
2022-12-17T10:29:00.423Z,13.73
2022-12-17T10:31:48.649Z,13.73
2022-12-17T10:34:39.115Z,13.73
2022-12-17T10:37:25.524Z,13.74
2022-12-17T10:40:18.623Z,13.72
2022-12-17T10:43:04.534Z,13.73
2022-12-17T10:45:53.698Z,13.74
2022-12-17T10:48:42.768Z,13.73
2022-12-17T10:51:47.422Z,13.73
2022-12-17T10:54:49.102Z,13.72
2022-12-17T10:57:40.371Z,13.72
2022-12-17T11:00:36.381Z,13.72
2022-12-17T11:03:23.099Z,13.72
2022-12-17T11:06:11.077Z,13.72
2022-12-17T11:08:57.184Z,13.73
2022-12-17T11:11:45.476Z,13.72
2022-12-17T11:14:32.335Z,13.72
2022-12-17T11:17:21.638Z,13.73
2022-12-17T11:20:23.699Z,13.72
2022-12-17T11:23:13.086Z,13.72
2022-12-17T11:26:11.448Z,13.72
2022-12-17T11:28:56.838Z,13.74
2022-12-17T11:31:51.217Z,13.73
2022-12-17T11:34:57.630Z,13.72
2022-12-17T11:38:12.190Z,13.72
2022-12-17T11:41:00.800Z,13.73
2022-12-17T11:43:50.899Z,13.74
2022-12-17T11:46:45.832Z,13.76
2022-12-17T11:49:59.348Z,13.75
2022-12-17T11:53:06.056Z,13.76
2022-12-17T11:56:00.134Z,13.77
2022-12-17T11:59:08.409Z,13.76
2022-12-17T12:02:23.696Z,13.78
2022-12-17T12:05:25.804Z,13.77
2022-12-17T12:08:23.348Z,13.78
2022-12-17T12:11:36.664Z,13.76
2022-12-17T12:14:27.705Z,13.75
2022-12-17T12:17:21.713Z,13.77
2022-12-17T12:20:19.402Z,13.74
2022-12-17T12:23:10.524Z,13.75
2022-12-17T12:26:29.744Z,13.75
2022-12-17T12:29:36.552Z,13.74
2022-12-17T12:32:26.514Z,13.75
2022-12-17T12:35:12.009Z,13.75
2022-12-17T12:37:57.627Z,13.73
2022-12-17T12:41:04.994Z,13.73
2022-12-17T12:43:53.034Z,13.74
2022-12-17T12:46:57.805Z,13.74
2022-12-17T12:50:08.281Z,13.75
2022-12-17T12:52:53.683Z,13.73
2022-12-17T12:55:38.765Z,13.73
2022-12-17T12:58:39.465Z,13.73
2022-12-17T13:01:25.108Z,13.74
2022-12-17T13:04:12.660Z,13.75
2022-12-17T13:06:54.327Z,13.74
2022-12-17T13:09:35.025Z,13.74
2022-12-17T13:12:04.979Z,13.75
2022-12-17T13:14:53.290Z,13.74
2022-12-17T13:17:27.868Z,13.73
2022-12-17T13:19:57.376Z,13.74
2022-12-17T13:22:24.607Z,13.75
2022-12-17T13:24:53.986Z,13.75
2022-12-17T13:27:35.541Z,13.75
2022-12-17T13:30:35.266Z,13.75
2022-12-17T13:33:04.779Z,13.74
2022-12-17T13:35:56.871Z,13.74
2022-12-17T13:38:42.010Z,13.75
2022-12-17T13:41:10.753Z,13.74
2022-12-17T13:43:51.460Z,13.74
2022-12-17T13:46:19.577Z,13.76
2022-12-17T13:48:59.174Z,13.73
2022-12-17T13:51:28.209Z,13.76
2022-12-17T13:53:59.896Z,13.75
2022-12-17T13:56:35.175Z,13.77
2022-12-17T13:59:09.325Z,13.76
2022-12-17T14:01:47.569Z,13.76
2022-12-17T14:04:28.492Z,13.77
2022-12-17T14:06:58.051Z,13.76
2022-12-17T14:09:34.778Z,13.75
2022-12-17T14:12:22.267Z,13.76
2022-12-17T14:14:55.976Z,13.76
2022-12-17T14:17:35.724Z,13.76
2022-12-17T14:20:05.617Z,13.76
2022-12-17T14:22:34.604Z,13.75
2022-12-17T14:25:01.652Z,13.75
2022-12-17T14:27:34.283Z,13.75
2022-12-17T14:30:01.631Z,13.74
2022-12-17T14:32:34.622Z,13.75
2022-12-17T14:35:01.571Z,13.76
2022-12-17T14:37:30.341Z,13.75
2022-12-17T14:40:01.912Z,13.75
2022-12-17T14:42:32.532Z,13.74
2022-12-17T14:45:01.555Z,13.73
2022-12-17T14:47:30.205Z,13.75
2022-12-17T14:50:02.691Z,13.74
2022-12-17T14:52:41.748Z,13.73
2022-12-17T14:55:23.845Z,13.74
2022-12-17T14:57:51.774Z,13.74
2022-12-17T15:00:18.784Z,13.74
2022-12-17T15:02:51.174Z,13.74
2022-12-17T15:05:18.220Z,13.73
2022-12-17T15:07:44.782Z,13.74
2022-12-17T15:10:14.333Z,13.74
2022-12-17T15:12:42.496Z,13.72
2022-12-17T15:15:13.657Z,13.73
2022-12-17T15:17:40.389Z,13.73
2022-12-17T15:20:10.072Z,13.74
2022-12-17T15:22:37.662Z,13.75
2022-12-17T15:25:04.749Z,13.73
2022-12-17T15:27:31.301Z,13.73
2022-12-17T15:29:57.846Z,13.73
2022-12-17T15:32:24.385Z,13.72
2022-12-17T15:34:50.948Z,13.73
2022-12-17T15:37:20.974Z,13.71
2022-12-17T15:39:47.732Z,13.70
2022-12-17T15:42:32.613Z,13.71
2022-12-17T15:44:59.167Z,13.71
2022-12-17T15:47:25.711Z,13.71
2022-12-17T15:49:52.269Z,13.71
2022-12-17T15:52:19.439Z,13.72
2022-12-17T15:54:46.010Z,13.71
2022-12-17T15:57:18.421Z,13.71
2022-12-17T15:59:45.317Z,13.71
2022-12-17T16:02:12.050Z,13.71
2022-12-17T16:04:38.780Z,13.71
2022-12-17T16:07:05.832Z,13.71
2022-12-17T16:09:32.364Z,13.71
2022-12-17T16:11:58.937Z,13.72
2022-12-17T16:14:25.803Z,13.71
2022-12-17T16:16:52.518Z,13.71
2022-12-17T16:19:22.250Z,13.71
2022-12-17T16:21:48.831Z,13.71
2022-12-17T16:24:15.471Z,13.72
2022-12-17T16:26:42.156Z,13.72
2022-12-17T16:29:08.842Z,13.71
2022-12-17T16:31:35.528Z,13.72
2022-12-17T16:34:02.320Z,13.71
2022-12-17T16:36:29.003Z,13.72
2022-12-17T16:38:55.570Z,13.71
2022-12-17T16:41:22.566Z,13.71
2022-12-17T16:43:49.461Z,13.71
2022-12-17T16:46:22.315Z,13.71
2022-12-17T16:48:48.923Z,13.70
2022-12-17T16:51:28.167Z,13.68
2022-12-17T16:53:55.843Z,13.70
2022-12-17T16:56:25.393Z,13.69
2022-12-17T16:58:52.791Z,13.68
2022-12-17T17:01:27.041Z,13.67
2022-12-17T17:03:54.453Z,13.69
2022-12-17T17:06:21.267Z,13.68
2022-12-17T17:08:47.993Z,13.68
2022-12-17T17:11:19.336Z,13.68
2022-12-17T17:13:45.878Z,13.68
2022-12-17T17:16:12.471Z,13.67
2022-12-17T17:18:39.437Z,13.68
2022-12-17T17:21:24.989Z,13.67
2022-12-17T17:23:58.260Z,13.68
2022-12-17T17:26:25.045Z,13.68
2022-12-17T17:28:51.951Z,13.66
2022-12-17T17:31:19.409Z,13.67
2022-12-17T17:33:48.709Z,13.68
2022-12-17T17:36:26.584Z,13.68
2022-12-17T17:38:57.574Z,13.68
2022-12-17T17:41:25.802Z,13.68
2022-12-17T17:43:59.754Z,13.68
2022-12-17T17:46:27.459Z,13.69
2022-12-17T17:48:57.124Z,13.69
2022-12-17T17:51:59.997Z,13.70
2022-12-17T17:54:14.448Z,13.69
2022-12-17T17:56:41.844Z,13.71
2022-12-17T17:59:13.302Z,13.70
2022-12-17T18:01:42.510Z,13.71
2022-12-17T18:04:12.170Z,13.71
2022-12-17T18:06:52.972Z,13.71
2022-12-17T18:09:27.522Z,13.72
2022-12-17T18:11:54.187Z,13.71
2022-12-17T18:14:20.718Z,13.72
2022-12-17T18:16:48.052Z,13.71
2022-12-17T18:19:20.325Z,13.71
2022-12-17T18:21:47.749Z,13.71
2022-12-17T18:24:19.656Z,13.72
2022-12-17T18:26:47.161Z,13.70
2022-12-17T18:29:18.708Z,13.71
2022-12-17T18:31:51.366Z,13.71
2022-12-17T18:34:20.989Z,13.71
2022-12-17T18:36:47.673Z,13.70
2022-12-17T18:39:19.550Z,13.71
2022-12-17T18:42:05.603Z,13.71
2022-12-17T18:44:33.236Z,13.71
2022-12-17T18:46:59.854Z,13.71
2022-12-17T18:49:26.834Z,13.69
2022-12-17T18:51:54.370Z,13.72
2022-12-17T18:54:23.635Z,13.70
2022-12-17T18:57:01.084Z,13.70
2022-12-17T18:59:29.498Z,13.70
2022-12-17T19:01:56.922Z,13.71
2022-12-17T19:04:24.039Z,13.71
2022-12-17T19:06:53.378Z,13.71
2022-12-17T19:09:25.641Z,13.71
2022-12-17T19:11:53.004Z,13.73
2022-12-17T19:14:22.078Z,13.72
2022-12-17T19:16:49.631Z,13.72
2022-12-17T19:19:16.338Z,13.71
2022-12-17T19:21:42.959Z,13.71
2022-12-17T19:24:13.426Z,13.70
2022-12-17T19:26:40.160Z,13.72
2022-12-17T19:29:08.495Z,13.73
2022-12-17T19:31:35.426Z,13.71
2022-12-17T19:34:04.015Z,13.70
2022-12-17T19:36:32.799Z,13.70
2022-12-17T19:39:02.184Z,13.71
2022-12-17T19:41:29.592Z,13.70
2022-12-17T19:44:00.622Z,13.71
2022-12-17T19:46:28.145Z,13.71
2022-12-17T19:48:54.713Z,13.72
2022-12-17T19:51:25.279Z,13.72
2022-12-17T19:53:51.859Z,13.71
2022-12-17T19:56:22.632Z,13.72
2022-12-17T19:58:55.291Z,13.72
2022-12-17T20:01:28.140Z,13.72
2022-12-17T20:03:55.367Z,13.72
2022-12-17T20:06:24.519Z,13.73
2022-12-17T20:08:51.812Z,13.73
2022-12-17T20:11:34.783Z,13.73
2022-12-17T20:14:04.488Z,13.73
2022-12-17T20:16:34.082Z,13.72
2022-12-17T20:19:01.660Z,13.72
2022-12-17T20:21:28.639Z,13.71
2022-12-17T20:23:55.235Z,13.70
2022-12-17T20:26:22.023Z,13.70
2022-12-17T20:28:48.598Z,13.70
2022-12-17T20:31:15.176Z,13.69
2022-12-17T20:33:41.757Z,13.70
2022-12-17T20:36:10.818Z,13.70
2022-12-17T20:38:38.707Z,13.70
2022-12-17T20:41:13.461Z,13.70
2022-12-17T20:43:40.438Z,13.70
2022-12-17T20:46:09.564Z,13.70
2022-12-17T20:48:41.076Z,13.69
2022-12-17T20:51:13.156Z,13.70
2022-12-17T20:53:40.197Z,13.71
2022-12-17T20:56:12.053Z,13.69
2022-12-17T20:58:39.592Z,13.70
2022-12-17T21:01:19.973Z,13.68
2022-12-17T21:03:49.404Z,13.70
2022-12-17T21:06:18.955Z,13.69
2022-12-17T21:08:50.073Z,13.69
2022-12-17T21:11:18.630Z,13.69
2022-12-17T21:13:45.601Z,13.68
2022-12-17T21:16:17.838Z,13.69
2022-12-17T21:18:44.590Z,13.70
2022-12-17T21:21:14.313Z,13.69
2022-12-17T21:23:41.313Z,13.68
2022-12-17T21:26:11.181Z,13.68
2022-12-17T21:28:39.596Z,13.72
2022-12-17T21:31:06.647Z,13.70
2022-12-17T21:33:33.577Z,13.69
2022-12-17T21:36:02.164Z,13.69
2022-12-17T21:38:34.871Z,13.68
2022-12-17T21:41:10.162Z,13.70
2022-12-17T21:43:37.734Z,13.69
2022-12-17T21:46:05.208Z,13.69
2022-12-17T21:48:34.430Z,13.70
2022-12-17T21:51:08.025Z,13.70
2022-12-17T21:53:35.323Z,13.70
2022-12-17T21:56:04.385Z,13.70
2022-12-17T21:58:31.282Z,13.70
2022-12-17T22:00:59.081Z,13.70
2022-12-17T22:03:25.699Z,13.70
2022-12-17T22:05:52.278Z,13.71
2022-12-17T22:08:18.939Z,13.72
2022-12-17T22:10:48.889Z,13.71
2022-12-17T22:13:37.708Z,13.71
2022-12-17T22:16:06.677Z,13.71
2022-12-17T22:18:33.305Z,13.71
2022-12-17T22:21:00.899Z,13.70
2022-12-17T22:23:27.643Z,13.70
2022-12-17T22:25:54.522Z,13.71
2022-12-17T22:28:21.094Z,13.70
2022-12-17T22:31:07.059Z,13.71
2022-12-17T22:34:08.431Z,13.70
2022-12-17T22:40:09.069Z,13.70
2022-12-17T22:43:04.714Z,13.70
2022-12-17T22:44:46.301Z,13.70
2022-12-17T22:45:08.534Z,13.70
2022-12-17T22:47:36.710Z,13.69
2022-12-17T22:50:03.608Z,13.71
2022-12-17T22:52:30.881Z,13.70
2022-12-17T22:54:57.921Z,13.69
2022-12-17T22:57:36.229Z,13.70
2022-12-17T23:00:10.562Z,13.70
2022-12-17T23:02:37.191Z,13.70
2022-12-17T23:05:03.851Z,13.70
2022-12-17T23:07:32.138Z,13.70
2022-12-17T23:09:59.016Z,13.71
2022-12-17T23:12:44.093Z,13.71
2022-12-17T23:15:10.834Z,13.70
2022-12-17T23:17:37.422Z,13.70
2022-12-17T23:20:04.295Z,13.70
2022-12-17T23:22:30.839Z,13.70
2022-12-17T23:24:57.413Z,13.70
2022-12-17T23:27:23.961Z,13.70
2022-12-17T23:29:50.627Z,13.71
2022-12-17T23:32:17.175Z,13.70
2022-12-17T23:34:43.751Z,13.70
2022-12-17T23:37:10.362Z,13.69
2022-12-17T23:39:36.975Z,13.70
2022-12-17T23:42:03.677Z,13.71
2022-12-17T23:44:30.265Z,13.71
2022-12-17T23:46:56.883Z,13.71
2022-12-17T23:49:23.552Z,13.70
2022-12-17T23:51:50.262Z,13.72
2022-12-17T23:54:16.844Z,13.72
2022-12-17T23:56:44.818Z,13.72
2022-12-17T23:59:11.381Z,13.71
